createdAt,value
2023-02-11T00:00:53.435Z,35.80
2023-02-11T00:03:36.922Z,38.53
2023-02-11T00:06:10.593Z,40.75
2023-02-11T00:08:45.005Z,40.55
2023-02-11T00:11:29.849Z,31.67
2023-02-11T00:14:22.518Z,34.25
2023-02-11T00:16:58.335Z,38.20
2023-02-11T00:19:27.479Z,40.90
2023-02-11T00:21:54.413Z,40.83
2023-02-11T00:24:30.118Z,43.88
2023-02-11T00:27:04.707Z,36.33
2023-02-11T00:29:41.972Z,35.42
2023-02-11T00:32:12.163Z,35.63
2023-02-11T00:34:48.523Z,38.63
2023-02-11T00:37:26.139Z,37.95
2023-02-11T00:40:19.681Z,36.58
2023-02-11T00:43:01.366Z,38.08
2023-02-11T00:45:38.236Z,39.08
2023-02-11T00:48:05.397Z,34.63
2023-02-11T00:50:38.475Z,38.35
2023-02-11T00:53:22.444Z,37.83
2023-02-11T00:56:04.097Z,39.35
2023-02-11T00:58:31.400Z,40.20
2023-02-11T01:01:01.326Z,32.72
2023-02-11T01:03:34.771Z,36.47
2023-02-11T01:06:06.176Z,38.83
2023-02-11T01:08:58.231Z,36.88
2023-02-11T01:11:26.406Z,35.63
2023-02-11T01:13:54.233Z,36.83
2023-02-11T01:16:21.890Z,34.75
2023-02-11T01:18:55.215Z,37.28
2023-02-11T01:21:34.785Z,36.22
2023-02-11T01:24:11.808Z,36.63
2023-02-11T01:26:39.578Z,36.55
2023-02-11T01:29:16.720Z,39.08
2023-02-11T01:31:49.049Z,33.42
2023-02-11T01:34:19.455Z,41.42
2023-02-11T01:36:46.387Z,33.05
2023-02-11T01:39:16.222Z,39.67
2023-02-11T01:41:42.987Z,39.92
2023-02-11T01:44:37.422Z,37.45
2023-02-11T01:47:07.520Z,37.88
2023-02-11T01:50:02.374Z,35.72
2023-02-11T01:52:33.638Z,35.63
2023-02-11T01:55:31.938Z,37.63
2023-02-11T01:58:13.615Z,35.97
2023-02-11T02:00:41.899Z,37.33
2023-02-11T02:03:20.718Z,37.38
2023-02-11T02:05:48.154Z,33.97
2023-02-11T02:08:34.770Z,35.28
2023-02-11T02:11:11.353Z,33.90
2023-02-11T02:13:43.575Z,35.10
2023-02-11T02:16:19.754Z,37.65
2023-02-11T02:19:32.043Z,33.47
2023-02-11T02:22:34.521Z,34.25
2023-02-11T02:25:27.439Z,34.63
2023-02-11T02:28:21.668Z,32.13
2023-02-11T02:31:14.710Z,35.05
2023-02-11T02:34:23.856Z,32.90
2023-02-11T02:37:16.794Z,36.63
2023-02-11T02:39:46.030Z,32.22
2023-02-11T02:42:22.687Z,33.15
2023-02-11T02:44:53.635Z,29.08
2023-02-11T02:47:20.438Z,34.13
2023-02-11T02:49:57.403Z,34.42
2023-02-11T02:53:07.914Z,31.90
2023-02-11T02:55:57.166Z,34.15
2023-02-11T02:58:49.995Z,33.65
2023-02-11T03:01:57.699Z,32.45
2023-02-11T03:05:13.537Z,29.55
2023-02-11T03:07:55.773Z,32.30
2023-02-11T03:10:40.481Z,29.45
2023-02-11T03:13:31.021Z,29.95
2023-02-11T03:16:31.874Z,32.20
2023-02-11T03:19:30.100Z,34.55
2023-02-11T03:22:10.156Z,30.98
2023-02-11T03:24:56.503Z,33.47
2023-02-11T03:27:46.708Z,33.00
2023-02-11T03:30:21.478Z,36.15
2023-02-11T03:33:24.175Z,34.38
2023-02-11T03:36:17.113Z,37.67
2023-02-11T03:39:01.155Z,30.20
2023-02-11T03:41:38.895Z,31.98
2023-02-11T03:44:07.483Z,31.95
2023-02-11T03:46:39.663Z,32.80
2023-02-11T03:49:20.634Z,33.63
2023-02-11T03:51:51.438Z,29.42
2023-02-11T03:54:22.569Z,34.45
2023-02-11T03:56:55.321Z,35.33
2023-02-11T03:59:52.117Z,34.88
2023-02-11T04:02:24.505Z,33.97
2023-02-11T04:04:51.272Z,29.65
2023-02-11T04:07:27.311Z,31.70
2023-02-11T04:09:54.413Z,34.15
2023-02-11T04:12:21.633Z,32.50
2023-02-11T04:14:48.817Z,31.40
2023-02-11T04:17:23.040Z,33.20
2023-02-11T04:20:04.400Z,32.80
2023-02-11T04:22:31.464Z,33.45
2023-02-11T04:24:58.368Z,34.03
2023-02-11T04:27:25.915Z,34.13
2023-02-11T04:30:05.062Z,34.80
2023-02-11T04:32:42.844Z,30.52
2023-02-11T04:35:11.083Z,36.58
2023-02-11T04:37:37.709Z,31.27
2023-02-11T04:40:05.072Z,37.95
2023-02-11T04:42:32.528Z,30.58
2023-02-11T04:45:03.098Z,30.77
2023-02-11T04:47:44.059Z,37.70
2023-02-11T04:50:11.557Z,30.10
2023-02-11T04:52:41.486Z,32.40
2023-02-11T04:55:11.777Z,30.48
2023-02-11T04:57:49.987Z,30.00
2023-02-11T05:00:26.335Z,26.77
2023-02-11T05:03:01.478Z,29.42
2023-02-11T05:05:31.219Z,30.00
2023-02-11T05:07:58.096Z,24.65
2023-02-11T05:10:24.922Z,28.05
2023-02-11T05:12:56.075Z,30.58
2023-02-11T05:15:27.002Z,28.58
2023-02-11T05:17:54.284Z,34.08
2023-02-11T05:20:26.380Z,26.05
2023-02-11T05:22:56.599Z,30.67
2023-02-11T05:25:26.783Z,31.00
2023-02-11T05:27:53.667Z,25.83
2023-02-11T05:30:29.266Z,28.02
2023-02-11T05:32:56.147Z,26.05
2023-02-11T05:35:25.464Z,30.27
2023-02-11T05:38:03.800Z,28.42
2023-02-11T05:40:52.095Z,30.40
2023-02-11T05:43:39.944Z,29.40
2023-02-11T05:46:18.673Z,27.33
2023-02-11T05:48:48.444Z,30.35
2023-02-11T05:51:15.220Z,31.58
2023-02-11T05:53:42.048Z,28.90
2023-02-11T05:56:25.346Z,29.40
2023-02-11T05:58:57.039Z,29.20
2023-02-11T06:01:23.761Z,31.07
2023-02-11T06:03:51.594Z,29.25
2023-02-11T06:06:29.941Z,28.35
2023-02-11T06:08:57.817Z,28.88
2023-02-11T06:11:24.811Z,40.67
2023-02-11T06:13:59.099Z,28.55
2023-02-11T06:16:38.740Z,33.05
2023-02-11T06:19:05.469Z,30.42
2023-02-11T06:21:43.313Z,29.55
2023-02-11T06:24:38.503Z,29.98
2023-02-11T06:27:06.114Z,33.90
2023-02-11T06:29:33.475Z,29.70
2023-02-11T06:32:04.973Z,33.75
2023-02-11T06:34:31.850Z,31.67
2023-02-11T06:36:58.740Z,36.58
2023-02-11T06:39:29.955Z,35.25
2023-02-11T06:42:06.424Z,30.35
2023-02-11T06:44:34.715Z,34.72
2023-02-11T06:47:07.088Z,30.90
2023-02-11T06:49:34.044Z,39.45
2023-02-11T06:52:07.304Z,44.10
2023-02-11T06:54:34.786Z,29.88
2023-02-11T06:57:02.109Z,34.13
2023-02-11T06:59:36.199Z,32.90
2023-02-11T07:02:06.162Z,37.45
2023-02-11T07:04:38.411Z,40.45
2023-02-11T07:07:16.328Z,34.58
2023-02-11T07:09:43.464Z,34.10
2023-02-11T07:12:16.606Z,30.42
2023-02-11T07:14:49.389Z,28.33
2023-02-11T07:17:35.214Z,27.65
2023-02-11T07:20:12.745Z,30.88
2023-02-11T07:22:45.290Z,27.30
2023-02-11T07:25:22.410Z,28.00
2023-02-11T07:27:50.435Z,27.50
2023-02-11T07:30:18.587Z,28.50
2023-02-11T07:32:49.219Z,27.88
2023-02-11T07:35:17.180Z,26.08
2023-02-11T07:37:44.197Z,23.50
2023-02-11T07:40:12.879Z,28.42
2023-02-11T07:42:48.222Z,28.08
2023-02-11T07:45:17.929Z,29.13
2023-02-11T07:47:48.950Z,36.60
2023-02-11T07:50:18.616Z,25.30
2023-02-11T07:52:45.445Z,26.42
2023-02-11T07:55:12.388Z,27.45
2023-02-11T07:57:42.034Z,28.42
2023-02-11T08:00:11.680Z,30.92
2023-02-11T08:02:40.778Z,23.95
2023-02-11T08:05:07.768Z,25.00
2023-02-11T08:07:37.638Z,26.65
2023-02-11T08:10:09.089Z,28.60
2023-02-11T08:12:36.046Z,31.08
2023-02-11T08:15:02.923Z,26.25
2023-02-11T08:20:48.636Z,25.63
2023-02-11T08:23:29.278Z,25.40
2023-02-11T08:26:04.237Z,33.20
2023-02-11T08:28:31.516Z,26.38
2023-02-11T08:31:03.796Z,26.45
2023-02-11T08:33:31.317Z,26.58
2023-02-11T08:36:07.377Z,30.00
2023-02-11T08:38:38.678Z,29.38
2023-02-11T08:41:18.183Z,24.58
2023-02-11T08:43:49.646Z,24.25
2023-02-11T08:46:23.003Z,23.48
2023-02-11T08:48:56.864Z,25.27
2023-02-11T08:51:29.518Z,26.90
2023-02-11T08:56:43.203Z,25.65
2023-02-11T08:59:13.910Z,25.10
2023-02-11T09:01:58.617Z,27.50
2023-02-11T09:04:41.119Z,25.17
2023-02-11T09:07:12.241Z,29.63
2023-02-11T09:12:29.478Z,28.48
2023-02-11T09:15:08.314Z,32.08
2023-02-11T09:17:35.224Z,33.80
2023-02-11T09:20:05.125Z,32.80
2023-02-11T09:22:33.177Z,28.25
2023-02-11T09:25:03.325Z,29.25
2023-02-11T09:27:30.139Z,33.70
2023-02-11T09:30:06.655Z,27.33
2023-02-11T09:32:52.404Z,29.95
2023-02-11T09:35:19.458Z,32.17
2023-02-11T09:37:53.400Z,31.98
2023-02-11T09:40:23.030Z,33.85
2023-02-11T09:43:14.582Z,34.78
2023-02-11T09:45:52.988Z,30.90
2023-02-11T09:48:31.600Z,28.67
2023-02-11T09:51:06.960Z,31.58
2023-02-11T09:53:47.861Z,34.92
2023-02-11T09:56:24.864Z,31.85
2023-02-11T09:58:52.098Z,32.40
2023-02-11T10:01:49.298Z,28.92
2023-02-11T10:04:26.892Z,31.45
2023-02-11T10:07:03.638Z,36.72
2023-02-11T10:10:08.130Z,38.13
2023-02-11T10:12:53.556Z,32.72
2023-02-11T10:15:53.204Z,33.60
2023-02-11T10:18:57.927Z,37.42
2023-02-11T10:22:02.789Z,35.90
2023-02-11T10:24:35.331Z,27.30
2023-02-11T10:30:19.359Z,31.98
2023-02-11T10:32:51.608Z,33.78
2023-02-11T10:38:16.502Z,29.60
2023-02-11T10:40:46.211Z,28.98
2023-02-11T10:43:29.004Z,33.38
2023-02-11T10:48:54.325Z,29.25
2023-02-11T10:51:51.849Z,30.38
2023-02-11T10:54:37.609Z,26.73
2023-02-11T10:57:07.706Z,32.08
2023-02-11T10:59:40.514Z,33.40
2023-02-11T11:02:35.317Z,30.35
2023-02-11T11:05:21.406Z,31.38
2023-02-11T11:08:13.492Z,25.23
2023-02-11T11:11:04.042Z,30.73
2023-02-11T11:13:37.093Z,26.77
2023-02-11T11:16:30.737Z,25.85
2023-02-11T11:19:08.522Z,29.35
2023-02-11T11:21:42.923Z,26.45
2023-02-11T11:24:31.476Z,33.28
2023-02-11T11:27:04.205Z,31.85
2023-02-11T11:29:55.552Z,24.67
2023-02-11T11:32:33.875Z,38.90
2023-02-11T11:38:33.353Z,33.85
2023-02-11T11:41:23.447Z,31.25
2023-02-11T11:44:30.716Z,31.42
2023-02-11T11:47:27.445Z,27.10
2023-02-11T11:50:02.257Z,26.80
2023-02-11T11:52:54.454Z,30.38
2023-02-11T11:55:33.051Z,28.95
2023-02-11T11:58:02.731Z,29.13
2023-02-11T12:00:43.090Z,30.40
2023-02-11T12:03:31.194Z,26.13
2023-02-11T12:06:25.328Z,26.83
2023-02-11T12:11:47.638Z,26.92
2023-02-11T12:14:39.493Z,28.63
2023-02-11T12:17:50.948Z,24.50
2023-02-11T12:20:33.275Z,26.55
2023-02-11T12:23:18.944Z,28.90
2023-02-11T12:25:58.470Z,29.00
2023-02-11T12:29:10.477Z,27.17
2023-02-11T12:32:24.875Z,26.55
2023-02-11T12:35:19.093Z,27.38
2023-02-11T12:38:08.544Z,25.38
2023-02-11T12:41:02.206Z,26.35
2023-02-11T12:43:46.191Z,25.08
2023-02-11T12:46:39.109Z,27.48
2023-02-11T12:49:47.419Z,23.50
2023-02-11T12:52:47.925Z,23.60
2023-02-11T12:55:57.292Z,24.02
2023-02-11T12:58:45.723Z,23.73
2023-02-11T13:01:46.532Z,27.75
2023-02-11T13:04:56.219Z,26.25
2023-02-11T13:07:56.776Z,28.80
2023-02-11T13:10:37.820Z,23.88
2023-02-11T13:13:19.462Z,23.27
2023-02-11T13:15:58.287Z,27.05
2023-02-11T13:18:56.028Z,28.00
2023-02-11T13:21:54.683Z,26.55
2023-02-11T13:24:51.986Z,28.10
2023-02-11T13:27:38.751Z,24.95
2023-02-11T13:30:45.507Z,26.92
2023-02-11T13:33:35.786Z,27.52
2023-02-11T13:36:23.724Z,22.30
2023-02-11T13:39:12.665Z,21.73
2023-02-11T13:41:52.919Z,21.83
2023-02-11T13:44:28.513Z,26.10
2023-02-11T13:47:17.997Z,29.40
2023-02-11T13:50:00.718Z,26.95
2023-02-11T13:55:25.518Z,24.80
2023-02-11T13:58:36.125Z,22.95
2023-02-11T14:01:41.626Z,26.05
2023-02-11T14:04:45.495Z,24.52
2023-02-11T14:07:48.928Z,30.35
2023-02-11T14:10:45.802Z,28.03
2023-02-11T14:13:34.874Z,28.25
2023-02-11T14:16:36.336Z,23.23
2023-02-11T14:19:06.941Z,32.00
2023-02-11T14:21:41.854Z,30.05
2023-02-11T14:24:13.268Z,22.35
2023-02-11T14:27:23.640Z,20.65
2023-02-11T14:30:24.610Z,24.20
2023-02-11T14:33:44.143Z,28.20
2023-02-11T14:36:40.864Z,24.98
2023-02-11T14:39:31.620Z,22.80
2023-02-11T14:42:07.588Z,25.95
2023-02-11T14:44:37.732Z,22.73
2023-02-11T14:47:19.179Z,31.05
2023-02-11T14:49:47.729Z,30.13
2023-02-11T14:52:41.808Z,28.95
2023-02-11T14:55:34.472Z,29.13
2023-02-11T14:58:27.428Z,26.95
2023-02-11T15:03:41.661Z,29.98
2023-02-11T15:06:31.394Z,23.40
2023-02-11T15:09:13.492Z,24.15
2023-02-11T15:11:43.299Z,28.02
2023-02-11T15:14:19.190Z,22.98
2023-02-11T15:16:47.828Z,29.02
2023-02-11T15:19:28.631Z,24.60
2023-02-11T15:21:59.750Z,25.05
2023-02-11T15:24:29.817Z,31.60
2023-02-11T15:27:21.073Z,28.55
2023-02-11T15:29:56.364Z,35.60
2023-02-11T15:32:36.887Z,28.95
2023-02-11T15:35:10.114Z,27.15
2023-02-11T15:37:37.137Z,22.52
2023-02-11T15:40:23.003Z,22.60
2023-02-11T15:42:58.342Z,22.95
2023-02-11T15:45:35.431Z,29.33
2023-02-11T15:48:12.934Z,29.25
2023-02-11T15:50:42.294Z,22.80
2023-02-11T15:53:27.399Z,31.38
2023-02-11T15:56:22.248Z,25.23
2023-02-11T15:59:19.321Z,31.65
2023-02-11T16:01:48.595Z,22.98
2023-02-11T16:04:22.079Z,29.30
2023-02-11T16:06:51.155Z,24.20
2023-02-11T16:09:41.431Z,23.13
2023-02-11T16:15:47.030Z,30.20
2023-02-11T16:18:28.461Z,27.50
2023-02-11T16:21:02.670Z,28.25
2023-02-11T16:23:34.847Z,29.65
2023-02-11T16:26:12.652Z,26.83
2023-02-11T16:28:46.691Z,39.33
2023-02-11T16:31:13.869Z,33.25
2023-02-11T16:33:43.193Z,30.58
2023-02-11T16:36:18.195Z,39.95
2023-02-11T16:38:45.093Z,43.55
2023-02-11T16:41:20.579Z,34.47
2023-02-11T16:43:53.162Z,36.63
2023-02-11T16:48:47.153Z,37.53
2023-02-11T16:51:18.817Z,34.88
2023-02-11T16:53:45.989Z,40.67
2023-02-11T16:56:19.476Z,43.10
2023-02-11T16:59:03.382Z,31.92
2023-02-11T17:01:36.489Z,42.25
2023-02-11T17:04:04.711Z,42.20
2023-02-11T17:06:32.005Z,36.55
2023-02-11T17:09:00.482Z,37.30
2023-02-11T17:11:29.775Z,40.00
2023-02-11T17:14:05.326Z,45.75
2023-02-11T17:16:36.330Z,44.38
2023-02-11T17:19:07.132Z,46.05
2023-02-11T17:21:34.173Z,43.92
2023-02-11T17:24:01.547Z,44.53
2023-02-11T17:29:12.155Z,47.03
2023-02-11T17:31:47.051Z,45.30
2023-02-11T17:34:22.971Z,46.80
2023-02-11T17:37:00.356Z,53.08
2023-02-11T17:39:27.904Z,47.17
2023-02-11T17:41:54.794Z,45.55
2023-02-11T17:44:22.016Z,49.53
2023-02-11T17:47:03.150Z,47.30
2023-02-11T17:49:34.030Z,45.75
2023-02-11T17:52:01.402Z,47.72
2023-02-11T17:54:33.384Z,42.15
2023-02-11T17:57:00.345Z,46.75
2023-02-11T17:59:31.887Z,47.85
2023-02-11T18:02:05.534Z,44.75
2023-02-11T18:04:34.247Z,48.15
2023-02-11T18:07:20.318Z,45.25
2023-02-11T18:09:49.860Z,45.17
2023-02-11T18:12:31.395Z,46.05
2023-02-11T18:14:58.417Z,42.88
2023-02-11T18:17:25.653Z,39.70
2023-02-11T18:20:00.744Z,45.10
2023-02-11T18:22:38.736Z,44.53
2023-02-11T18:25:13.350Z,45.67
2023-02-11T18:27:51.822Z,42.58
2023-02-11T18:30:48.459Z,41.15
2023-02-11T18:33:28.213Z,40.63
2023-02-11T18:35:57.743Z,40.80
2023-02-11T18:38:44.565Z,44.53
2023-02-11T18:41:36.639Z,49.28
2023-02-11T18:44:28.748Z,43.63
2023-02-11T18:47:07.813Z,47.05
2023-02-11T18:49:43.536Z,44.83
2023-02-11T18:52:21.489Z,46.58
2023-02-11T18:54:52.483Z,48.63
2023-02-11T18:57:31.272Z,55.97
2023-02-11T19:00:08.061Z,51.58
2023-02-11T19:02:49.151Z,57.65
2023-02-11T19:05:16.734Z,65.85
2023-02-11T19:07:47.156Z,51.90
2023-02-11T19:10:14.303Z,57.58
2023-02-11T19:12:42.188Z,57.28
2023-02-11T19:15:09.288Z,53.90
2023-02-11T19:17:41.484Z,46.03
2023-02-11T19:20:09.219Z,37.58
2023-02-11T19:22:41.829Z,50.42
2023-02-11T19:27:53.343Z,46.60
2023-02-11T19:30:20.831Z,41.05
2023-02-11T19:32:53.345Z,46.13
2023-02-11T19:37:54.839Z,44.25
2023-02-11T19:40:21.695Z,35.47
2023-02-11T19:42:51.416Z,54.53
2023-02-11T19:45:20.580Z,52.80
2023-02-11T19:47:47.440Z,46.83
2023-02-11T19:50:14.423Z,49.90
2023-02-11T19:52:41.291Z,37.22
2023-02-11T19:55:08.732Z,34.75
2023-02-11T19:57:59.693Z,34.10
2023-02-11T20:00:26.651Z,49.22
2023-02-11T20:02:53.581Z,48.35
2023-02-11T20:05:20.424Z,45.72
2023-02-11T20:07:59.661Z,48.38
2023-02-11T20:10:33.614Z,45.80
2023-02-11T20:13:06.625Z,39.70
2023-02-11T20:15:34.612Z,49.20
2023-02-11T20:18:02.078Z,44.80
2023-02-11T20:20:28.881Z,40.17
2023-02-11T20:22:55.765Z,42.28
2023-02-11T20:25:22.725Z,42.97
2023-02-11T20:27:51.254Z,45.47
2023-02-11T20:30:28.555Z,42.10
2023-02-11T20:33:01.762Z,41.45
2023-02-11T20:35:28.723Z,43.35
2023-02-11T20:37:56.288Z,39.40
2023-02-11T20:40:28.260Z,41.70
2023-02-11T20:42:57.003Z,39.55
2023-02-11T20:45:25.001Z,41.65
2023-02-11T20:48:01.901Z,35.72
2023-02-11T20:50:30.018Z,43.65
2023-02-11T20:53:10.493Z,43.47
2023-02-11T20:55:40.574Z,44.40
2023-02-11T20:58:08.369Z,41.20
2023-02-11T21:00:38.436Z,43.85
2023-02-11T21:03:10.927Z,37.92
2023-02-11T21:05:39.364Z,39.33
2023-02-11T21:08:08.081Z,38.42
2023-02-11T21:10:38.863Z,38.55
2023-02-11T21:13:05.953Z,36.90
2023-02-11T21:15:32.902Z,38.50
2023-02-11T21:18:02.964Z,42.75
2023-02-11T21:20:40.388Z,33.45
2023-02-11T21:23:12.268Z,36.70
2023-02-11T21:25:40.475Z,36.33
2023-02-11T21:28:13.867Z,39.40
2023-02-11T21:30:44.938Z,37.20
2023-02-11T21:33:13.230Z,33.40
2023-02-11T21:35:43.227Z,33.53
2023-02-11T21:38:18.708Z,37.47
2023-02-11T21:40:46.373Z,32.90
2023-02-11T21:43:34.736Z,35.58
2023-02-11T21:46:41.290Z,37.35
2023-02-11T21:49:12.701Z,42.83
2023-02-11T21:51:48.780Z,30.92
2023-02-11T21:54:19.184Z,36.30
2023-02-11T21:56:55.173Z,39.20
2023-02-11T21:59:45.738Z,39.03
2023-02-11T22:02:24.341Z,39.08
2023-02-11T22:04:57.829Z,40.90
2023-02-11T22:07:31.029Z,42.25
2023-02-11T22:10:01.046Z,38.63
2023-02-11T22:12:37.886Z,38.92
2023-02-11T22:15:05.902Z,40.42
2023-02-11T22:17:34.687Z,41.55
2023-02-11T22:20:12.448Z,28.58
2023-02-11T22:22:49.976Z,41.80
2023-02-11T22:25:29.198Z,49.33
2023-02-11T22:27:57.078Z,38.30
2023-02-11T22:30:52.689Z,37.13
2023-02-11T22:33:26.011Z,48.22
2023-02-11T22:36:09.001Z,38.70
2023-02-11T22:38:40.136Z,47.88
2023-02-11T22:41:11.364Z,46.00
2023-02-11T22:43:38.988Z,38.60
2023-02-11T22:46:15.674Z,46.83
2023-02-11T22:49:17.690Z,41.22
2023-02-11T22:51:49.792Z,46.80
2023-02-11T22:54:40.081Z,43.78
2023-02-11T22:57:06.921Z,46.50
2023-02-11T22:59:39.803Z,38.95
2023-02-11T23:02:10.077Z,41.83
2023-02-11T23:04:37.261Z,35.80
2023-02-11T23:07:09.329Z,43.83
2023-02-11T23:09:45.189Z,45.53
2023-02-11T23:12:15.182Z,33.55
2023-02-11T23:14:45.046Z,39.50
2023-02-11T23:17:12.033Z,34.55
2023-02-11T23:19:48.591Z,35.35
2023-02-11T23:22:23.837Z,31.20
2023-02-11T23:24:50.868Z,36.72
2023-02-11T23:27:29.506Z,33.40
2023-02-11T23:32:53.322Z,36.97
2023-02-11T23:35:44.958Z,42.65
2023-02-11T23:38:19.536Z,34.53
2023-02-11T23:40:46.616Z,40.40
2023-02-11T23:43:17.944Z,30.45
2023-02-11T23:48:31.145Z,33.10
2023-02-11T23:53:45.385Z,34.15
2023-02-11T23:56:27.671Z,27.40
2023-02-11T23:58:57.465Z,26.92
